Time;durP1;ratioP1;P1;durP2;ratioP2;P2;SDS_P1;SDS_P2;PMS_P1;PMS_P2;Temp;Humidity;BMP_temperature;BMP_pressure;BME280_temperature;BME280_humidity;BME280_pressure;Samples;Min_cycle;Max_cycle;Signal;HPM_P1;HPM_P2
2022/02/13 00:00:42;;;;;;;102.78;49.17;;;;;;;-4.81;100.00;100339.56;2082258;28;20192;-79
2022/02/13 00:01:48;;;;;;;95.20;48.63;;;;;;;-4.79;100.00;100342.00;2081777;28;20234;-79
2022/02/13 00:02:51;;;;;;;102.93;48.65;;;;;;;-4.81;100.00;100336.97;2074473;28;20738;-79
2022/02/13 00:03:57;;;;;;;99.57;48.05;;;;;;;-4.79;100.00;100339.38;2081530;28;20208;-79
2022/02/13 00:04:59;;;;;;;95.60;49.58;;;;;;;-4.77;100.00;100334.84;2081894;28;20261;-79
2022/02/13 00:06:03;;;;;;;100.53;49.70;;;;;;;-4.76;100.00;100332.09;2081125;28;20202;-79
2022/02/13 00:07:05;;;;;;;109.63;49.20;;;;;;;-4.78;100.00;100325.41;2074161;28;20296;-79
2022/02/13 00:08:09;;;;;;;98.10;49.05;;;;;;;-4.78;100.00;100331.41;2073545;28;20196;-79
2022/02/13 00:09:12;;;;;;;90.57;48.65;;;;;;;-4.78;100.00;100322.78;2081633;28;20195;-79
2022/02/13 00:10:19;;;;;;;105.18;52.30;;;;;;;-4.79;100.00;100327.19;2081817;28;20249;-79
2022/02/13 00:11:19;;;;;;;103.10;50.35;;;;;;;-4.82;100.00;100327.53;2074074;28;20594;-79
2022/02/13 00:12:21;;;;;;;99.57;48.20;;;;;;;-4.80;100.00;100320.38;2073720;28;20196;-79
2022/02/13 00:13:23;;;;;;;104.97;50.35;;;;;;;-4.79;100.00;100319.38;2081733;28;20554;-79
2022/02/13 00:14:26;;;;;;;102.25;52.00;;;;;;;-4.78;100.00;100322.78;2081517;28;20616;-79
2022/02/13 00:15:29;;;;;;;97.07;48.72;;;;;;;-4.80;100.00;100322.97;2081594;28;20329;-79
2022/02/13 00:16:32;;;;;;;107.60;49.63;;;;;;;-4.79;100.00;100319.38;2081608;28;20207;-78
2022/02/13 00:17:40;;;;;;;102.90;49.72;;;;;;;-4.77;100.00;100327.06;2081481;28;20207;-78
2022/02/13 00:18:44;;;;;;;101.88;50.45;;;;;;;-4.78;100.00;100315.78;2082262;28;20550;-78
2022/02/13 00:19:49;;;;;;;106.97;50.15;;;;;;;-4.76;100.00;100310.44;2081485;28;20231;-79
2022/02/13 00:20:50;;;;;;;96.03;48.72;;;;;;;-4.75;100.00;100309.47;2081635;28;20202;-79
2022/02/13 00:21:57;;;;;;;114.23;50.80;;;;;;;-4.73;100.00;100315.31;2082293;28;20208;-79
2022/02/13 00:23:01;;;;;;;108.03;51.13;;;;;;;-4.76;100.00;100324.28;2082067;28;20206;-79
2022/02/13 00:24:05;;;;;;;101.00;49.38;;;;;;;-4.75;100.00;100312.06;2081747;28;20204;-78
2022/02/13 00:25:09;;;;;;;100.18;49.58;;;;;;;-4.74;100.00;100317.09;2082050;28;20191;-78
2022/02/13 00:26:11;;;;;;;100.50;50.70;;;;;;;-4.73;100.00;100316.13;2082296;28;20191;-78
2022/02/13 00:27:14;;;;;;;97.25;48.65;;;;;;;-4.74;100.00;100314.50;2082572;28;20238;-79
2022/02/13 00:28:17;;;;;;;100.43;51.03;;;;;;;-4.70;100.00;100321.00;2081496;28;20202;-79
2022/02/13 00:29:20;;;;;;;103.38;50.03;;;;;;;-4.70;100.00;100320.19;2073558;28;20203;-79
2022/02/13 00:30:24;;;;;;;95.57;50.00;;;;;;;-4.69;100.00;100316.59;2074005;28;20219;-79
2022/02/13 00:31:31;;;;;;;98.15;49.35;;;;;;;-4.72;100.00;100315.13;2074322;28;20228;-79
2022/02/13 00:32:34;;;;;;;99.90;49.78;;;;;;;-4.73;100.00;100307.50;2074286;28;20200;-79
2022/02/13 00:33:36;;;;;;;103.03;50.13;;;;;;;-4.77;100.00;100309.63;2081639;28;20219;-79
2022/02/13 00:34:38;;;;;;;97.20;49.95;;;;;;;-4.84;100.00;100312.09;2082284;28;20191;-79
2022/02/13 00:35:41;;;;;;;103.95;51.05;;;;;;;-4.86;100.00;100310.63;2081311;28;20223;-79
2022/02/13 00:36:46;;;;;;;103.53;50.08;;;;;;;-4.89;100.00;100308.34;2081039;28;20228;-79
2022/02/13 00:37:49;;;;;;;106.15;49.83;;;;;;;-4.89;100.00;100309.16;2081756;28;20200;-79
2022/02/13 00:38:52;;;;;;;99.13;50.75;;;;;;;-4.89;100.00;100303.13;2089611;28;20710;-79
2022/02/13 00:39:57;;;;;;;103.40;49.92;;;;;;;-4.90;100.00;100310.13;2082098;28;20193;-79
2022/02/13 00:41:00;;;;;;;101.88;50.97;;;;;;;-4.92;100.00;100312.09;2081278;28;20223;-79
2022/02/13 00:42:07;;;;;;;107.45;51.25;;;;;;;-4.95;100.00;100304.63;2081572;28;20200;-78
2022/02/13 00:43:09;;;;;;;106.63;51.95;;;;;;;-4.98;100.00;100315.34;2081712;28;20273;-78
2022/02/13 00:44:15;;;;;;;99.63;49.20;;;;;;;-4.98;100.00;100304.94;2073738;28;20192;-78
2022/02/13 00:45:19;;;;;;;104.60;50.17;;;;;;;-4.99;100.00;100307.72;2081552;28;20223;-78
2022/02/13 00:46:25;;;;;;;103.00;52.42;;;;;;;-5.02;100.00;100292.44;2081969;28;20655;-78
2022/02/13 00:47:28;;;;;;;112.07;52.53;;;;;;;-4.99;100.00;100302.50;2082085;28;20240;-78
2022/02/13 00:48:33;;;;;;;106.63;51.67;;;;;;;-4.99;100.00;100300.72;2081472;28;20238;-78
2022/02/13 00:49:35;;;;;;;106.18;52.10;;;;;;;-4.99;100.00;100289.50;2081563;28;20667;-78
2022/02/13 00:50:40;;;;;;;106.05;51.08;;;;;;;-4.98;100.00;100289.31;2082092;28;20187;-78
2022/02/13 00:51:46;;;;;;;95.65;50.22;;;;;;;-4.99;100.00;100292.91;2081690;28;20230;-78
2022/02/13 00:52:49;;;;;;;99.95;50.95;;;;;;;-5.00;100.00;100291.28;2082063;28;20188;-78
2022/02/13 00:53:52;;;;;;;97.07;49.45;;;;;;;-5.01;100.00;100288.84;2081890;28;20192;-78
2022/02/13 00:54:55;;;;;;;105.57;51.03;;;;;;;-5.04;100.00;100287.38;2082094;28;20184;-78
2022/02/13 00:55:58;;;;;;;107.60;52.30;;;;;;;-5.07;100.00;100282.50;2081640;28;20310;-78
2022/02/13 00:57:02;;;;;;;100.50;52.38;;;;;;;-5.02;100.00;100292.44;2073402;28;20673;-77
2022/02/13 00:58:05;;;;;;;103.18;50.95;;;;;;;-5.07;100.00;100279.09;2081538;28;20211;-78
2022/02/13 00:59:11;;;;;;;100.53;51.67;;;;;;;-5.07;100.00;100287.72;2081146;28;20210;-78
2022/02/13 01:00:15;;;;;;;107.93;52.58;;;;;;;-5.05;100.00;100290.13;2081437;28;20682;-77
2022/02/13 01:01:19;;;;;;;108.45;53.15;;;;;;;-5.09;100.00;100291.47;2082051;28;20527;-77
2022/02/13 01:02:21;;;;;;;107.95;52.55;;;;;;;-5.07;100.00;100292.91;2081700;28;20207;-78
2022/02/13 01:03:23;;;;;;;109.95;51.85;;;;;;;-5.07;100.00;100289.50;2081459;28;20195;-78
2022/02/13 01:04:28;;;;;;;115.13;55.47;;;;;;;-5.06;100.00;100280.72;2081980;28;20275;-78
2022/02/13 01:05:32;;;;;;;107.25;53.25;;;;;;;-5.01;100.00;100284.47;2081647;28;20702;-79
2022/02/13 01:06:35;;;;;;;102.25;51.90;;;;;;;-5.04;100.00;100283.94;2080979;28;20235;-78
2022/02/13 01:07:41;;;;;;;101.93;51.75;;;;;;;-5.02;100.00;100282.84;2081708;28;20199;-79
2022/02/13 01:08:46;;;;;;;103.75;53.38;;;;;;;-5.00;100.00;100293.06;2081541;28;20196;-78
2022/02/13 01:09:48;;;;;;;98.18;52.33;;;;;;;-5.04;100.00;100279.56;2082245;28;20708;-77
2022/02/13 01:10:53;;;;;;;109.30;52.53;;;;;;;-5.02;100.00;100284.63;2081756;28;20287;-78
2022/02/13 01:11:58;;;;;;;105.68;52.67;;;;;;;-5.04;100.00;100276.16;2075603;28;20208;-77
2022/02/13 01:13:01;;;;;;;106.90;52.05;;;;;;;-5.08;100.00;100269.66;2075561;28;20231;-78
2022/02/13 01:14:04;;;;;;;101.15;51.67;;;;;;;-5.07;100.00;100279.09;2083490;28;20290;-78
2022/02/13 01:15:08;;;;;;;106.63;52.70;;;;;;;-5.10;100.00;100277.63;2082850;28;20204;-78
2022/02/13 01:16:12;;;;;;;99.63;51.67;;;;;;;-5.09;100.00;100275.84;2075293;28;20258;-78
2022/02/13 01:17:14;;;;;;;106.88;52.30;;;;;;;-5.08;100.00;100274.88;2083584;28;20196;-78
2022/02/13 01:18:18;;;;;;;112.00;52.22;;;;;;;-5.11;100.00;100278.63;2083216;28;20283;-78
2022/02/13 01:19:27;;;;;;;116.75;55.78;;;;;;;-5.09;100.00;100281.06;2075341;28;20292;-78
2022/02/13 01:20:29;;;;;;;109.28;52.35;;;;;;;-5.08;100.00;100277.47;2075767;28;20216;-77
2022/02/13 01:21:35;;;;;;;108.97;54.33;;;;;;;-5.12;100.00;100277.81;2082967;28;20306;-78
2022/02/13 01:22:42;;;;;;;106.55;52.40;;;;;;;-5.17;100.00;100261.88;2083100;28;20199;-78
2022/02/13 01:23:46;;;;;;;106.20;52.72;;;;;;;-5.21;100.00;100268.38;2083307;28;20180;-77
2022/02/13 01:24:51;;;;;;;101.43;52.75;;;;;;;-5.20;100.00;100274.41;2083727;28;20257;-78
2022/02/13 01:25:55;;;;;;;108.93;54.25;;;;;;;-5.20;100.00;100269.19;2083111;28;20203;-78
2022/02/13 01:27:00;;;;;;;106.32;52.17;;;;;;;-5.22;100.00;100265.94;2075052;28;20208;-78
2022/02/13 01:28:03;;;;;;;108.07;53.88;;;;;;;-5.27;100.00;100268.22;2083291;28;20203;-78
2022/02/13 01:29:05;;;;;;;113.30;52.83;;;;;;;-5.28;100.00;100270.00;2083409;28;20266;-77
2022/02/13 01:30:08;;;;;;;107.50;53.92;;;;;;;-5.33;100.00;100253.25;2083598;28;20220;-77
2022/02/13 01:31:11;;;;;;;106.13;54.22;;;;;;;-5.31;100.00;100261.72;2082888;28;20226;-77
2022/02/13 01:32:13;;;;;;;112.85;55.13;;;;;;;-5.31;100.00;100256.50;2082728;28;20210;-77
2022/02/13 01:33:18;;;;;;;109.03;53.90;;;;;;;-5.33;100.00;100259.28;2075260;28;20674;-78
2022/02/13 01:34:19;;;;;;;114.03;55.67;;;;;;;-5.33;100.00;100258.47;2082717;28;20215;-78
2022/02/13 01:35:26;;;;;;;115.80;55.35;;;;;;;-5.34;100.00;100257.66;2083372;28;20191;-77
2022/02/13 01:36:28;;;;;;;115.72;54.65;;;;;;;-5.34;100.00;100252.44;2082521;28;20219;-78
2022/02/13 01:37:32;;;;;;;113.35;53.40;;;;;;;-5.34;100.00;100255.06;2082982;28;20655;-78
2022/02/13 01:38:37;;;;;;;106.50;53.55;;;;;;;-5.32;100.00;100257.50;2082842;28;20208;-77
2022/02/13 01:39:45;;;;;;;113.55;55.22;;;;;;;-5.34;100.00;100249.84;2082808;28;20199;-78
2022/02/13 01:40:47;;;;;;;122.43;55.63;;;;;;;-5.29;100.00;100250.19;2082899;28;20184;-77
2022/02/13 01:41:52;;;;;;;117.00;54.50;;;;;;;-5.31;100.00;100243.50;2083468;28;20219;-77
2022/02/13 01:42:57;;;;;;;109.35;54.55;;;;;;;-5.27;100.00;100253.44;2083440;28;20172;-77
2022/02/13 01:44:00;;;;;;;106.38;54.35;;;;;;;-5.26;100.00;100247.25;2090970;28;20683;-77
2022/02/13 01:45:02;;;;;;;109.93;54.20;;;;;;;-5.27;100.00;100248.22;2082694;28;20685;-78
2022/02/13 01:46:04;;;;;;;107.95;55.00;;;;;;;-5.29;100.00;100237.19;2082697;28;20199;-77
2022/02/13 01:47:08;;;;;;;104.53;52.85;;;;;;;-5.23;100.00;100238.28;2082987;28;20191;-77
2022/02/13 01:48:14;;;;;;;106.60;52.80;;;;;;;-5.32;100.00;100234.88;2082612;28;20199;-77
2022/02/13 01:49:15;;;;;;;109.35;55.35;;;;;;;-5.35;100.00;100232.63;2082899;28;20287;-77
2022/02/13 01:50:19;;;;;;;116.82;55.75;;;;;;;-5.35;100.00;100240.44;2074721;28;20196;-77
2022/02/13 01:51:23;;;;;;;108.60;55.33;;;;;;;-5.37;100.00;100231.19;2082580;28;20223;-77
2022/02/13 01:52:25;;;;;;;112.30;56.45;;;;;;;-5.38;100.00;100235.56;2082642;28;20199;-77
2022/02/13 01:53:31;;;;;;;114.45;54.28;;;;;;;-5.38;100.00;100234.75;2082730;28;20184;-77
2022/02/13 01:54:38;;;;;;;112.65;55.40;;;;;;;-5.37;100.00;100239.78;2083461;28;20200;-78
2022/02/13 01:55:42;;;;;;;119.30;56.30;;;;;;;-5.40;100.00;100230.50;2083266;28;20282;-77
2022/02/13 01:56:47;;;;;;;116.97;55.25;;;;;;;-5.40;100.00;100230.50;2082718;28;20283;-77
2022/02/13 01:57:49;;;;;;;111.93;56.38;;;;;;;-5.41;100.00;100225.47;2082744;28;20696;-78
2022/02/13 01:58:50;;;;;;;106.22;54.33;;;;;;;-5.44;100.00;100226.63;2082637;28;20298;-77
2022/02/13 01:59:57;;;;;;;110.68;54.13;;;;;;;-5.42;100.00;100227.25;2074581;28;20673;-77
2022/02/13 02:01:00;;;;;;;110.93;54.60;;;;;;;-5.45;100.00;100222.41;2075282;28;20235;-77
2022/02/13 02:02:05;;;;;;;118.45;54.50;;;;;;;-5.45;100.00;100219.00;2074557;28;20654;-77
2022/02/13 02:03:06;;;;;;;117.35;56.28;;;;;;;-5.47;100.00;100220.94;2082498;28;20290;-77
2022/02/13 02:04:10;;;;;;;105.22;54.63;;;;;;;-5.49;100.00;100218.47;2082585;28;20188;-77
2022/02/13 02:05:15;;;;;;;107.82;54.80;;;;;;;-5.53;100.00;100211.19;2090628;28;20253;-77
2022/02/13 02:06:17;;;;;;;119.63;55.65;;;;;;;-5.52;100.00;100213.63;2081614;28;20227;-78
2022/02/13 02:07:19;;;;;;;110.75;54.33;;;;;;;-5.56;100.00;100214.94;2082844;28;20183;-78
2022/02/13 02:08:25;;;;;;;111.88;55.97;;;;;;;-5.54;100.00;100217.38;2090715;28;20229;-78
2022/02/13 02:09:29;;;;;;;112.03;54.70;;;;;;;-5.52;100.00;100223.22;2082701;28;20242;-77
2022/02/13 02:10:33;;;;;;;114.40;54.15;;;;;;;-5.54;100.00;100212.97;2082440;28;20607;-77
2022/02/13 02:11:35;;;;;;;105.18;53.97;;;;;;;-5.51;100.00;100224.84;2074288;28;20204;-77
2022/02/13 02:12:38;;;;;;;104.22;53.65;;;;;;;-5.51;100.00;100214.44;2082582;28;20219;-77
2022/02/13 02:13:39;;;;;;;114.00;55.72;;;;;;;-5.52;100.00;100212.81;2083346;28;20203;-77
2022/02/13 02:14:45;;;;;;;117.15;55.58;;;;;;;-5.51;100.00;100215.25;2082422;28;20207;-78
2022/02/13 02:15:50;;;;;;;110.97;54.80;;;;;;;-5.55;100.00;100200.16;2082454;28;20654;-78
2022/02/13 02:16:55;;;;;;;113.40;55.63;;;;;;;-5.54;100.00;100207.78;2083222;28;20282;-78
2022/02/13 02:18:01;;;;;;;109.65;54.72;;;;;;;-5.57;100.00;100204.69;2083068;28;20188;-78
2022/02/13 02:19:05;;;;;;;121.35;56.40;;;;;;;-5.56;100.00;100201.09;2082344;28;20253;-78
2022/02/13 02:20:08;;;;;;;121.82;56.90;;;;;;;-5.58;100.00;100197.84;2082388;28;20234;-78
2022/02/13 02:21:12;;;;;;;111.43;55.28;;;;;;;-5.61;100.00;100198.19;2082830;28;20665;-78
2022/02/13 02:22:19;;;;;;;113.82;55.70;;;;;;;-5.60;100.00;100199.81;2082974;28;20226;-78
2022/02/13 02:23:25;;;;;;;115.90;54.42;;;;;;;-5.64;100.00;100198.53;2082362;28;20210;-78
2022/02/13 02:24:30;;;;;;;114.82;56.45;;;;;;;-5.65;100.00;100200.28;2082516;28;20599;-78
2022/02/13 02:25:34;;;;;;;109.18;54.95;;;;;;;-5.68;100.00;100198.84;2082240;28;20239;-78
2022/02/13 02:26:39;;;;;;;105.15;55.17;;;;;;;-5.71;100.00;100204.38;2082355;28;20196;-77
2022/02/13 02:27:40;;;;;;;110.82;56.25;;;;;;;-5.71;100.00;100204.38;2082603;28;20233;-78
2022/02/13 02:28:44;;;;;;;115.15;55.50;;;;;;;-5.72;100.00;100196.75;2082393;28;20747;-78
2022/02/13 02:29:47;;;;;;;123.43;56.63;;;;;;;-5.69;100.00;100196.41;2082404;28;20275;-78
2022/02/13 02:30:49;;;;;;;109.07;53.28;;;;;;;-5.62;100.00;100194.78;2082631;28;20199;-78
2022/02/13 02:31:53;;;;;;;114.15;54.00;;;;;;;-5.49;100.00;100191.69;2074785;28;20208;-78
2022/02/13 02:32:58;;;;;;;107.45;53.33;;;;;;;-5.40;100.00;100190.69;2082242;28;20188;-78
2022/02/13 02:34:00;;;;;;;106.00;52.33;;;;;;;-5.40;100.00;100188.09;2083506;28;20269;-78
2022/02/13 02:35:05;;;;;;;111.30;50.92;;;;;;;-5.34;100.00;100191.81;2083090;28;20195;-78
2022/02/13 02:36:15;;;;;;;113.05;53.60;;;;;;;-5.32;100.00;100192.47;2082365;28;20218;-78
2022/02/13 02:37:19;;;;;;;109.88;53.50;;;;;;;-5.37;100.00;100179.97;2082597;28;20183;-78
2022/02/13 02:38:26;;;;;;;111.47;53.50;;;;;;;-5.35;100.00;100178.00;2082086;28;20666;-78
2022/02/13 02:39:32;;;;;;;115.72;53.28;;;;;;;-5.37;100.00;100182.59;2082460;28;20172;-78
2022/02/13 02:40:35;;;;;;;104.78;51.67;;;;;;;-5.37;100.00;100184.38;2082883;28;20196;-78
2022/02/13 02:41:40;;;;;;;109.93;56.28;;;;;;;-5.40;100.00;100186.28;2090711;28;20203;-78
2022/02/13 02:42:43;;;;;;;119.63;56.95;;;;;;;-5.41;100.00;100183.88;2090322;28;20238;-78
2022/02/13 02:43:50;;;;;;;113.35;55.63;;;;;;;-5.44;100.00;100173.81;2083058;28;20191;-78
2022/02/13 02:44:54;;;;;;;115.88;55.75;;;;;;;-5.47;100.00;100184.53;2082893;28;20214;-78
2022/02/13 02:46:00;;;;;;;109.10;53.58;;;;;;;-5.48;100.00;100188.91;2082471;28;20195;-78
2022/02/13 02:47:03;;;;;;;110.18;54.67;;;;;;;-5.50;100.00;100184.84;2082782;28;20271;-78
2022/02/13 02:48:06;;;;;;;108.45;54.45;;;;;;;-5.54;100.00;100188.78;2082358;28;20249;-78
2022/02/13 02:49:12;;;;;;;99.22;51.78;;;;;;;-5.58;100.00;100177.88;2082944;28;20216;-79
2022/02/13 02:50:17;;;;;;;111.07;54.80;;;;;;;-5.61;100.00;100175.59;2082807;28;20769;-78
2022/02/13 02:51:19;;;;;;;108.55;56.17;;;;;;;-5.61;100.00;100183.41;2082052;28;20223;-78
2022/02/13 02:52:25;;;;;;;116.90;56.95;;;;;;;-5.64;100.00;100180.34;2082143;28;20199;-78
2022/02/13 02:53:30;;;;;;;104.95;52.33;;;;;;;-5.67;100.00;100173.66;2074596;28;20282;-78
2022/02/13 02:54:33;;;;;;;110.75;53.75;;;;;;;-5.68;100.00;100172.03;2082150;28;20199;-79
2022/02/13 02:55:41;;;;;;;118.28;57.20;;;;;;;-5.68;100.00;100174.63;2074683;28;20239;-78
2022/02/13 02:56:47;;;;;;;116.53;55.55;;;;;;;-5.70;100.00;100177.41;2082169;28;20307;-78
2022/02/13 02:57:48;;;;;;;120.75;55.03;;;;;;;-5.72;100.00;100174.16;2083199;28;20662;-78
2022/02/13 02:58:54;;;;;;;110.30;54.30;;;;;;;-5.74;100.00;100167.47;2082112;28;20586;-78
2022/02/13 02:59:58;;;;;;;105.97;53.28;;;;;;;-5.73;100.00;100171.72;2082326;28;20176;-78
2022/02/13 03:01:01;;;;;;;102.15;53.67;;;;;;;-5.74;100.00;100163.09;2082323;28;20290;-78
2022/02/13 03:02:03;;;;;;;118.38;57.05;;;;;;;-5.73;100.00;100161.34;2082383;28;20658;-78
2022/02/13 03:03:07;;;;;;;121.13;57.67;;;;;;;-5.72;100.00;100173.34;2082896;28;20596;-78
2022/02/13 03:04:13;;;;;;;115.95;55.50;;;;;;;-5.71;100.00;100164.56;2082711;28;20270;-78
2022/02/13 03:05:18;;;;;;;109.63;53.05;;;;;;;-5.72;100.00;100165.56;2083312;28;20187;-78
2022/02/13 03:06:20;;;;;;;103.60;50.75;;;;;;;-5.71;100.00;100165.38;2082222;28;20220;-78
2022/02/13 03:07:26;;;;;;;109.57;51.80;;;;;;;-5.68;100.00;100172.84;2082665;28;20199;-78
2022/02/13 03:08:30;;;;;;;117.00;52.95;;;;;;;-5.65;100.00;100160.50;2082798;28;20223;-78
2022/02/13 03:09:32;;;;;;;111.72;53.13;;;;;;;-5.65;100.00;100166.50;2090025;28;20707;-77
2022/02/13 03:10:39;;;;;;;101.93;50.88;;;;;;;-5.64;100.00;100167.34;2083193;28;20184;-78
2022/02/13 03:11:42;;;;;;;110.95;51.90;;;;;;;-5.62;100.00;100165.38;2082340;28;20203;-78
2022/02/13 03:12:49;;;;;;;114.95;55.00;;;;;;;-5.62;100.00;100163.59;2082319;28;20222;-78
2022/02/13 03:13:58;;;;;;;105.35;53.90;;;;;;;-5.66;100.00;100164.88;2081881;28;20203;-78
2022/02/13 03:15:01;;;;;;;111.00;52.08;;;;;;;-5.70;100.00;100156.59;2082486;28;20172;-78
2022/02/13 03:16:04;;;;;;;111.60;54.25;;;;;;;-5.73;100.00;100159.53;2082030;28;20748;-78
2022/02/13 03:17:07;;;;;;;113.70;54.60;;;;;;;-5.73;100.00;100159.53;2082329;28;20658;-78
2022/02/13 03:18:11;;;;;;;109.80;52.85;;;;;;;-5.77;100.00;100157.41;2090144;28;20214;-78
2022/02/13 03:19:14;;;;;;;106.78;53.97;;;;;;;-5.83;100.00;100158.88;2089753;28;20273;-78
2022/02/13 03:20:23;;;;;;;109.63;54.50;;;;;;;-5.81;100.00;100161.34;2082268;28;20669;-78
2022/02/13 03:21:27;;;;;;;105.85;52.45;;;;;;;-5.83;100.00;100147.66;2082122;28;20725;-78
2022/02/13 03:22:32;;;;;;;111.28;54.00;;;;;;;-5.85;100.00;100150.44;2089901;28;20629;-78
2022/02/13 03:23:34;;;;;;;106.18;51.85;;;;;;;-5.87;100.00;100148.97;2089936;28;20562;-78
2022/02/13 03:24:39;;;;;;;119.20;56.17;;;;;;;-5.94;100.00;100143.66;2090106;28;20240;-78
2022/02/13 03:25:45;;;;;;;108.75;53.67;;;;;;;-5.95;100.00;100147.22;2082197;28;20204;-77
2022/02/13 03:26:51;;;;;;;111.07;54.13;;;;;;;-5.96;100.00;100150.00;2081952;28;20203;-78
2022/02/13 03:27:56;;;;;;;108.05;54.85;;;;;;;-6.02;100.00;100143.66;2082540;28;20195;-78
2022/02/13 03:28:58;;;;;;;108.22;52.92;;;;;;;-6.02;100.00;100141.06;2082798;28;20192;-78
2022/02/13 03:30:00;;;;;;;107.28;54.65;;;;;;;-6.05;100.00;100143.97;2081863;28;20203;-77
2022/02/13 03:31:03;;;;;;;106.35;53.40;;;;;;;-6.10;100.00;100139.25;2082006;28;20192;-77
2022/02/13 03:32:09;;;;;;;113.03;54.45;;;;;;;-6.11;100.00;100142.03;2090103;28;20303;-77
2022/02/13 03:33:14;;;;;;;106.50;52.00;;;;;;;-6.14;100.00;100137.97;2081781;28;20230;-77
2022/02/13 03:34:22;;;;;;;104.72;51.95;;;;;;;-6.14;100.00;100144.94;2081199;28;20231;-78
2022/02/13 03:35:23;;;;;;;110.57;53.08;;;;;;;-6.18;100.00;100128.06;2082254;28;20195;-78
2022/02/13 03:36:27;;;;;;;105.57;55.08;;;;;;;-6.18;100.00;100136.66;2081250;28;20228;-78
2022/02/13 03:37:29;;;;;;;109.70;53.58;;;;;;;-6.22;100.00;100137.16;2081946;28;20271;-78
2022/02/13 03:38:34;;;;;;;106.90;52.83;;;;;;;-6.19;100.00;100137.63;2081976;28;20631;-78
2022/02/13 03:39:39;;;;;;;109.85;53.03;;;;;;;-6.20;100.00;100137.78;2081941;28;20189;-77
2022/02/13 03:40:45;;;;;;;114.32;54.10;;;;;;;-6.21;100.00;100143.97;2082582;28;20199;-78
2022/02/13 03:41:48;;;;;;;110.53;52.95;;;;;;;-6.23;100.00;100140.72;2082446;28;20722;-78
2022/02/13 03:42:52;;;;;;;111.65;53.33;;;;;;;-6.28;100.00;100142.00;2082528;28;20191;-78
2022/02/13 03:43:54;;;;;;;114.35;53.58;;;;;;;-6.29;100.00;100145.56;2081824;28;20674;-78
2022/02/13 03:45:01;;;;;;;116.97;54.65;;;;;;;-6.33;100.00;100146.06;2082059;28;20290;-78
2022/02/13 03:46:05;;;;;;;110.10;53.33;;;;;;;-6.33;100.00;100141.69;2081937;28;20191;-78
2022/02/13 03:47:08;;;;;;;99.38;52.60;;;;;;;-6.36;100.00;100143.78;2081940;28;20287;-78
2022/02/13 03:48:13;;;;;;;116.47;54.28;;;;;;;-6.39;100.00;100131.94;2081871;28;20222;-78
2022/02/13 03:49:16;;;;;;;109.43;53.20;;;;;;;-6.39;100.00;100137.13;2089956;28;20199;-78
2022/02/13 03:50:17;;;;;;;108.75;54.70;;;;;;;-6.43;100.00;100132.41;2090000;28;20285;-78
2022/02/13 03:51:19;;;;;;;108.25;53.38;;;;;;;-6.44;100.00;100133.38;2082028;28;20310;-78
2022/02/13 03:52:21;;;;;;;105.65;54.45;;;;;;;-6.45;100.00;100129.97;2081728;28;20291;-78
2022/02/13 03:53:26;;;;;;;114.10;54.10;;;;;;;-6.45;100.00;100132.56;2081780;28;20242;-78
2022/02/13 03:54:28;;;;;;;104.15;52.33;;;;;;;-6.47;100.00;100129.31;2082378;28;20218;-78
2022/02/13 03:55:34;;;;;;;113.80;56.28;;;;;;;-6.53;100.00;100123.94;2082545;28;20194;-78
2022/02/13 03:56:36;;;;;;;110.45;53.58;;;;;;;-6.46;100.00;100132.72;2082408;28;20208;-78
2022/02/13 03:57:39;;;;;;;112.10;53.78;;;;;;;-6.51;100.00;100128.03;2081772;28;20760;-78
2022/02/13 03:58:41;;;;;;;106.82;53.10;;;;;;;-6.52;100.00;100123.78;2073767;28;20262;-78
2022/02/13 03:59:47;;;;;;;115.50;54.28;;;;;;;-6.53;100.00;100123.94;2081857;28;20294;-78
2022/02/13 04:00:51;;;;;;;114.97;54.17;;;;;;;-6.54;100.00;100133.50;2081919;28;20196;-78
2022/02/13 04:01:59;;;;;;;107.65;53.78;;;;;;;-6.53;100.00;100129.94;2081810;28;20179;-78
2022/02/13 04:03:03;;;;;;;109.28;52.55;;;;;;;-6.52;100.00;100134.16;2082688;28;20183;-78
2022/02/13 04:04:05;;;;;;;113.13;54.80;;;;;;;-6.52;100.00;100126.38;2081891;28;20694;-78
2022/02/13 04:05:10;;;;;;;104.93;52.47;;;;;;;-6.53;100.00;100123.94;2074038;28;20200;-78
2022/02/13 04:06:12;;;;;;;108.50;53.90;;;;;;;-6.52;100.00;100123.78;2073477;28;20651;-78
2022/02/13 04:07:17;;;;;;;115.30;53.92;;;;;;;-6.51;100.00;100127.22;2081816;28;20187;-78
2022/02/13 04:08:19;;;;;;;106.70;53.88;;;;;;;-6.50;100.00;100121.88;2081913;28;20214;-78
2022/02/13 04:09:25;;;;;;;109.57;53.53;;;;;;;-6.50;100.00;100124.47;2081852;28;20238;-78
2022/02/13 04:10:27;;;;;;;124.93;55.28;;;;;;;-6.48;100.00;100122.50;2082729;28;20207;-78
2022/02/13 04:11:33;;;;;;;112.03;53.85;;;;;;;-6.49;100.00;100128.69;2082182;28;20200;-78
2022/02/13 04:12:39;;;;;;;117.30;54.17;;;;;;;-6.48;100.00;100129.47;2082463;28;20182;-78
2022/02/13 04:13:45;;;;;;;108.70;53.40;;;;;;;-6.53;100.00;100124.75;2081819;28;20227;-78
2022/02/13 04:14:47;;;;;;;109.43;53.40;;;;;;;-6.52;100.00;100115.19;2081663;28;20222;-78
2022/02/13 04:15:53;;;;;;;117.53;53.53;;;;;;;-6.53;100.00;100113.56;2082373;28;20211;-78
2022/02/13 04:16:59;;;;;;;111.65;54.08;;;;;;;-6.57;100.00;100115.69;2082431;28;20581;-78
2022/02/13 04:18:02;;;;;;;117.00;54.35;;;;;;;-6.60;100.00;100108.22;2081653;28;20271;-78
2022/02/13 04:19:03;;;;;;;117.10;53.70;;;;;;;-6.60;100.00;100118.59;2081540;28;20580;-78
2022/02/13 04:20:08;;;;;;;109.53;52.83;;;;;;;-6.65;100.00;100111.28;2081308;28;20247;-78
2022/02/13 04:21:13;;;;;;;111.47;55.33;;;;;;;-6.66;100.00;100114.03;2081344;28;20222;-78
2022/02/13 04:22:17;;;;;;;123.63;53.92;;;;;;;-6.67;100.00;100104.63;2081502;28;20219;-78
2022/02/13 04:23:21;;;;;;;111.30;55.15;;;;;;;-6.70;100.00;100108.34;2082324;28;20520;-78
2022/02/13 04:24:26;;;;;;;104.28;56.28;;;;;;;-6.67;100.00;100115.00;2081683;28;20282;-78
2022/02/13 04:25:30;;;;;;;114.40;54.50;;;;;;;-6.67;100.00;100105.44;2081784;28;20271;-78
2022/02/13 04:26:35;;;;;;;110.20;54.50;;;;;;;-6.67;100.00;100109.81;2081404;28;20207;-78
2022/02/13 04:27:41;;;;;;;114.00;55.88;;;;;;;-6.69;100.00;100107.38;2081832;28;20689;-78
2022/02/13 04:28:47;;;;;;;111.28;53.67;;;;;;;-6.67;100.00;100108.03;2082534;28;20353;-78
2022/02/13 04:29:50;;;;;;;109.95;53.65;;;;;;;-6.69;100.00;100106.56;2089180;28;20657;-78
2022/02/13 04:30:53;;;;;;;108.57;54.35;;;;;;;-6.70;100.00;100107.53;2081818;28;20206;-77
2022/02/13 04:31:57;;;;;;;111.60;55.80;;;;;;;-6.69;100.00;100098.78;2081423;28;20278;-78
2022/02/13 04:32:58;;;;;;;107.97;54.63;;;;;;;-6.71;100.00;100091.16;2081893;28;20204;-77
2022/02/13 04:34:00;;;;;;;108.57;55.15;;;;;;;-6.70;100.00;100092.75;2081524;28;20613;-78
2022/02/13 04:35:03;;;;;;;113.68;55.20;;;;;;;-6.70;100.00;100097.16;2081728;28;20740;-77
2022/02/13 04:36:08;;;;;;;109.85;53.33;;;;;;;-6.72;100.00;100097.31;2073207;28;20208;-78
2022/02/13 04:37:12;;;;;;;110.35;52.03;;;;;;;-6.73;100.00;100087.91;2081676;28;20317;-77
2022/02/13 04:38:18;;;;;;;109.20;53.20;;;;;;;-6.71;100.00;100090.34;2081802;28;20211;-78
2022/02/13 04:39:21;;;;;;;119.00;54.90;;;;;;;-6.71;100.00;100092.94;2081351;28;20637;-77
2022/02/13 04:40:24;;;;;;;106.88;52.83;;;;;;;-6.72;100.00;100088.72;2081560;28;20217;-78
2022/02/13 04:41:28;;;;;;;104.90;53.00;;;;;;;-6.72;100.00;100088.72;2089677;28;20249;-78
2022/02/13 04:42:34;;;;;;;107.63;54.55;;;;;;;-6.75;100.00;100087.25;2081389;28;20662;-78
2022/02/13 04:43:39;;;;;;;111.57;54.70;;;;;;;-6.74;100.00;100081.09;2081567;28;20195;-78
2022/02/13 04:44:44;;;;;;;105.43;52.33;;;;;;;-6.78;100.00;100084.16;2081608;28;20294;-78